createdAt,value
2023-01-17T00:02:19.916Z,53.63
2023-01-17T00:05:05.821Z,53.41
2023-01-17T00:07:52.053Z,53.41
2023-01-17T00:10:27.979Z,53.44
2023-01-17T00:12:58.664Z,53.78
2023-01-17T00:15:27.240Z,53.64
2023-01-17T00:17:54.847Z,53.76
2023-01-17T00:20:46.549Z,53.50
2023-01-17T00:23:41.831Z,53.40
2023-01-17T00:26:18.794Z,53.55
2023-01-17T00:28:47.701Z,53.50
2023-01-17T00:31:16.361Z,53.65
2023-01-17T00:33:43.577Z,53.60
2023-01-17T00:36:11.663Z,53.71
2023-01-17T00:38:41.229Z,53.70
2023-01-17T00:41:14.054Z,53.89
2023-01-17T00:43:59.866Z,53.70
2023-01-17T00:46:45.676Z,53.78
2023-01-17T00:49:31.269Z,54.00
2023-01-17T00:52:17.200Z,54.18
2023-01-17T00:55:02.618Z,54.18
2023-01-17T00:57:48.470Z,53.87
2023-01-17T01:00:38.810Z,53.83
2023-01-17T01:03:31.295Z,54.13
2023-01-17T01:06:16.775Z,53.92
2023-01-17T01:09:02.173Z,54.13
2023-01-17T01:11:47.698Z,54.41
2023-01-17T01:14:33.157Z,54.49
2023-01-17T01:17:18.660Z,54.45
2023-01-17T01:20:04.136Z,54.38
2023-01-17T01:22:49.525Z,54.50
2023-01-17T01:25:35.140Z,54.42
2023-01-17T01:28:27.302Z,54.57
2023-01-17T01:31:13.111Z,54.75
2023-01-17T01:33:40.121Z,54.71
2023-01-17T01:36:08.834Z,54.79
2023-01-17T01:38:35.759Z,54.70
2023-01-17T01:41:02.900Z,54.95
2023-01-17T01:43:47.647Z,54.88
2023-01-17T01:46:36.913Z,55.04
2023-01-17T01:49:17.820Z,55.10
2023-01-17T01:51:51.810Z,54.97
2023-01-17T01:54:28.575Z,54.98
2023-01-17T01:57:01.524Z,55.00
2023-01-17T01:59:30.956Z,55.25
2023-01-17T02:01:58.277Z,55.41
2023-01-17T02:07:15.303Z,55.14
2023-01-17T02:09:42.636Z,55.28
2023-01-17T02:12:10.418Z,55.29
2023-01-17T02:14:37.311Z,55.40
2023-01-17T02:17:34.661Z,55.21
2023-01-17T02:20:33.805Z,55.47
2023-01-17T02:23:28.113Z,55.46
2023-01-17T02:26:31.327Z,55.38
2023-01-17T02:29:43.898Z,55.25
2023-01-17T02:32:44.577Z,55.54
2023-01-17T02:36:04.129Z,55.57
2023-01-17T02:38:50.000Z,55.40
2023-01-17T02:41:23.585Z,55.68
2023-01-17T02:43:51.456Z,55.78
2023-01-17T02:46:18.834Z,55.70
2023-01-17T02:48:46.733Z,55.64
2023-01-17T02:51:54.537Z,55.67
2023-01-17T02:54:50.935Z,56.07
2023-01-17T02:57:29.475Z,55.92
2023-01-17T03:00:19.075Z,55.75
2023-01-17T03:03:22.184Z,56.08
2023-01-17T03:06:07.748Z,55.78
2023-01-17T03:08:34.963Z,56.04
2023-01-17T03:11:01.965Z,55.65
2023-01-17T03:13:28.844Z,55.83
2023-01-17T03:15:55.732Z,55.84
2023-01-17T03:18:22.886Z,55.57
2023-01-17T03:20:49.851Z,55.77
2023-01-17T03:23:16.732Z,55.81
2023-01-17T03:25:43.624Z,55.65
2023-01-17T03:28:10.520Z,55.70
2023-01-17T03:30:37.417Z,55.66
2023-01-17T03:33:04.344Z,55.59
2023-01-17T03:35:31.225Z,55.76
2023-01-17T03:37:58.684Z,55.82
2023-01-17T03:40:25.682Z,55.72
2023-01-17T03:42:52.566Z,55.95
2023-01-17T03:45:19.942Z,55.82
2023-01-17T03:47:46.839Z,55.68
2023-01-17T03:50:13.827Z,55.66
2023-01-17T03:52:40.717Z,55.64
2023-01-17T03:55:08.253Z,55.67
2023-01-17T03:57:35.120Z,55.77
2023-01-17T04:00:02.087Z,55.61
2023-01-17T04:02:29.052Z,55.51
2023-01-17T04:04:56.005Z,55.25
2023-01-17T04:07:23.017Z,55.46
2023-01-17T04:09:49.941Z,55.18
2023-01-17T04:12:16.849Z,55.10
2023-01-17T04:14:43.764Z,55.04
2023-01-17T04:17:12.879Z,54.54
2023-01-17T04:19:40.980Z,54.95
2023-01-17T04:22:08.331Z,54.90
2023-01-17T04:24:35.344Z,54.79
2023-01-17T04:27:04.323Z,54.92
2023-01-17T04:29:31.302Z,54.82
2023-01-17T04:31:58.203Z,54.85
2023-01-17T04:34:25.178Z,55.10
2023-01-17T04:36:52.057Z,54.65
2023-01-17T04:39:18.965Z,54.70
2023-01-17T04:41:45.834Z,54.42
2023-01-17T04:44:12.722Z,54.51
2023-01-17T04:46:39.600Z,54.60
2023-01-17T04:49:06.580Z,54.44
2023-01-17T04:51:33.477Z,54.63
2023-01-17T04:54:00.379Z,54.51
2023-01-17T04:56:27.321Z,54.65
2023-01-17T04:58:57.082Z,54.42
2023-01-17T05:01:24.036Z,54.48
2023-01-17T05:03:50.953Z,54.50
2023-01-17T05:06:17.817Z,54.39
2023-01-17T05:08:44.713Z,54.32
2023-01-17T05:11:11.579Z,54.31
2023-01-17T05:13:38.468Z,54.42
2023-01-17T05:16:05.504Z,54.47
2023-01-17T05:18:32.427Z,54.54
2023-01-17T05:21:03.800Z,54.36
2023-01-17T05:23:30.718Z,54.50
2023-01-17T05:25:57.576Z,54.65
2023-01-17T05:28:24.493Z,54.67
2023-01-17T05:30:52.111Z,54.47
2023-01-17T05:33:19.002Z,54.51
2023-01-17T05:35:45.887Z,54.44
2023-01-17T05:38:12.765Z,54.64
2023-01-17T05:40:39.658Z,54.56
2023-01-17T05:43:06.536Z,54.43
2023-01-17T05:45:33.837Z,54.57
2023-01-17T05:48:01.380Z,55.03
2023-01-17T05:50:38.444Z,54.98
2023-01-17T05:53:12.587Z,55.62
2023-01-17T05:55:40.406Z,55.67
2023-01-17T05:58:09.393Z,56.08
2023-01-17T06:00:37.364Z,56.09
2023-01-17T06:03:04.502Z,56.23
2023-01-17T06:05:31.939Z,56.35
2023-01-17T06:07:59.441Z,56.21
2023-01-17T06:10:28.222Z,56.47
2023-01-17T06:13:07.773Z,56.58
2023-01-17T06:15:38.783Z,56.36
2023-01-17T06:18:09.113Z,56.39
2023-01-17T06:20:36.160Z,56.55
2023-01-17T06:23:04.577Z,56.79
2023-01-17T06:25:38.466Z,56.73
2023-01-17T06:28:09.580Z,56.67
2023-01-17T06:30:36.722Z,56.80
2023-01-17T06:33:04.719Z,56.46
2023-01-17T06:35:31.954Z,56.81
2023-01-17T06:38:00.324Z,56.90
2023-01-17T06:40:28.661Z,56.96
2023-01-17T06:43:03.613Z,56.83
2023-01-17T06:45:32.108Z,57.27
2023-01-17T06:48:00.836Z,57.29
2023-01-17T06:50:27.780Z,57.37
2023-01-17T06:53:03.620Z,57.44
2023-01-17T06:55:33.741Z,57.63
2023-01-17T06:58:02.694Z,57.36
2023-01-17T07:00:31.344Z,57.28
2023-01-17T07:02:58.500Z,57.43
2023-01-17T07:05:25.536Z,57.63
2023-01-17T07:07:53.527Z,57.62
2023-01-17T07:10:21.313Z,57.80
2023-01-17T07:12:48.247Z,57.92
2023-01-17T07:15:15.257Z,58.05
2023-01-17T07:17:42.172Z,57.99
2023-01-17T07:20:09.872Z,58.14
2023-01-17T07:22:37.713Z,57.86
2023-01-17T07:25:05.187Z,58.02
2023-01-17T07:27:33.478Z,58.10
2023-01-17T07:30:00.497Z,57.57
2023-01-17T07:32:27.646Z,57.78
2023-01-17T07:34:56.790Z,57.52
2023-01-17T07:37:23.753Z,57.42
2023-01-17T07:39:50.697Z,57.44
2023-01-17T07:42:17.573Z,57.16
2023-01-17T07:44:45.315Z,57.47
2023-01-17T07:47:12.298Z,57.18
2023-01-17T07:49:39.260Z,57.30
2023-01-17T07:52:09.587Z,57.41
2023-01-17T07:54:36.501Z,57.35
2023-01-17T07:57:03.485Z,57.55
2023-01-17T07:59:30.438Z,57.75
2023-01-17T08:01:57.513Z,57.73
2023-01-17T08:04:34.543Z,57.57
2023-01-17T08:07:02.278Z,57.40
2023-01-17T08:09:29.172Z,57.16
2023-01-17T08:11:56.079Z,57.33
2023-01-17T08:14:23.002Z,56.99
2023-01-17T08:16:49.858Z,56.95
2023-01-17T08:19:17.291Z,56.89
2023-01-17T08:21:44.205Z,57.14
2023-01-17T08:24:14.697Z,57.45
2023-01-17T08:26:41.624Z,57.71
2023-01-17T08:29:09.354Z,57.89
2023-01-17T08:31:36.721Z,57.81
2023-01-17T08:34:03.784Z,57.70
2023-01-17T08:36:31.272Z,57.95
2023-01-17T08:38:58.844Z,57.63
2023-01-17T08:41:28.961Z,57.66
2023-01-17T08:43:55.810Z,57.86
2023-01-17T08:46:22.930Z,57.69
2023-01-17T08:48:55.697Z,57.85
2023-01-17T08:51:26.258Z,57.86
2023-01-17T08:53:54.833Z,57.84
2023-01-17T08:56:21.928Z,58.12
2023-01-17T08:58:48.754Z,57.68
2023-01-17T09:01:16.007Z,57.80
2023-01-17T09:03:42.983Z,57.95
2023-01-17T09:06:15.360Z,57.88
2023-01-17T09:08:47.029Z,58.10
2023-01-17T09:11:16.776Z,57.96
2023-01-17T09:13:43.859Z,57.86
2023-01-17T09:16:11.244Z,57.94
2023-01-17T09:18:38.209Z,57.71
2023-01-17T09:21:14.219Z,57.96
2023-01-17T09:23:41.613Z,58.01
2023-01-17T09:26:17.504Z,58.07
2023-01-17T09:28:44.369Z,58.27
2023-01-17T09:31:11.271Z,58.32
2023-01-17T09:33:41.021Z,58.39
2023-01-17T09:36:08.924Z,58.31
2023-01-17T09:38:36.362Z,58.17
2023-01-17T09:41:03.809Z,58.38
2023-01-17T09:43:56.128Z,58.27
2023-01-17T09:46:29.878Z,58.50
2023-01-17T09:49:24.164Z,58.48
2023-01-17T09:51:51.066Z,58.65
2023-01-17T09:54:23.798Z,59.06
2023-01-17T09:57:03.369Z,59.13
2023-01-17T10:00:02.907Z,58.97
2023-01-17T10:03:17.023Z,59.09
2023-01-17T10:06:10.413Z,59.33
2023-01-17T10:09:30.376Z,59.30
2023-01-17T10:12:28.599Z,59.04
2023-01-17T10:15:16.526Z,59.05
2023-01-17T10:18:21.743Z,58.90
2023-01-17T10:21:49.490Z,59.13
2023-01-17T10:24:49.848Z,58.68
2023-01-17T10:27:26.255Z,58.70
2023-01-17T10:29:54.212Z,58.53
2023-01-17T10:32:26.590Z,58.65
2023-01-17T10:35:01.413Z,58.61
2023-01-17T10:37:40.925Z,58.23
2023-01-17T10:40:41.177Z,58.11
2023-01-17T10:43:44.484Z,58.25
2023-01-17T10:46:22.940Z,57.59
2023-01-17T10:48:52.648Z,57.15
2023-01-17T10:51:30.808Z,56.81
2023-01-17T10:55:03.872Z,56.72
2023-01-17T10:57:41.830Z,56.61
2023-01-17T11:00:21.429Z,56.12
2023-01-17T11:02:50.599Z,56.06
2023-01-17T11:05:31.236Z,56.00
2023-01-17T11:07:59.191Z,56.14
2023-01-17T11:10:49.053Z,56.35
2023-01-17T11:13:30.292Z,56.06
2023-01-17T11:16:02.151Z,55.44
2023-01-17T11:18:32.027Z,55.22
2023-01-17T11:21:15.954Z,55.16
2023-01-17T11:23:50.003Z,55.70
2023-01-17T11:26:29.584Z,55.61
2023-01-17T11:29:27.078Z,55.49
2023-01-17T11:31:56.239Z,55.38
2023-01-17T11:34:32.018Z,55.66
2023-01-17T11:37:19.559Z,55.95
2023-01-17T11:39:49.964Z,55.84
2023-01-17T11:42:37.832Z,55.25
2023-01-17T11:45:25.353Z,55.15
2023-01-17T11:48:08.040Z,55.19
2023-01-17T11:50:45.517Z,55.42
2023-01-17T11:53:23.181Z,55.08
2023-01-17T11:56:10.430Z,54.59
2023-01-17T11:58:41.849Z,54.67
2023-01-17T12:01:37.506Z,54.53
2023-01-17T12:04:43.576Z,56.26
2023-01-17T12:07:37.963Z,56.45
2023-01-17T12:10:43.401Z,56.83
2023-01-17T12:13:48.384Z,56.75
2023-01-17T12:16:45.973Z,57.17
2023-01-17T12:19:57.141Z,57.38
2023-01-17T12:22:59.584Z,57.54
2023-01-17T12:25:32.159Z,57.20
2023-01-17T12:28:31.829Z,57.44
2023-01-17T12:31:26.219Z,57.13
2023-01-17T12:34:21.715Z,56.83
2023-01-17T12:37:31.734Z,56.44
2023-01-17T12:40:15.195Z,56.07
2023-01-17T12:42:51.502Z,55.87
2023-01-17T12:45:46.014Z,55.40
2023-01-17T12:48:18.675Z,54.83
2023-01-17T12:50:58.428Z,54.63
2023-01-17T12:53:49.513Z,54.56
2023-01-17T12:56:40.855Z,54.39
2023-01-17T12:59:22.428Z,54.14
2023-01-17T13:01:57.880Z,53.84
2023-01-17T13:04:32.580Z,53.98
2023-01-17T13:06:59.494Z,53.64
2023-01-17T13:09:35.297Z,53.36
2023-01-17T13:12:11.319Z,53.32
2023-01-17T13:14:38.211Z,53.23
2023-01-17T13:17:39.548Z,53.30
2023-01-17T13:20:43.806Z,53.01
2023-01-17T13:23:30.943Z,53.17
2023-01-17T13:26:00.254Z,53.49
2023-01-17T13:28:58.812Z,53.66
2023-01-17T13:31:49.427Z,53.75
2023-01-17T13:34:45.745Z,54.05
2023-01-17T13:37:33.412Z,53.62
2023-01-17T13:40:34.572Z,53.74
2023-01-17T13:43:12.469Z,53.48
2023-01-17T13:45:39.701Z,53.68
2023-01-17T13:48:12.587Z,53.80
2023-01-17T13:50:53.011Z,53.47
2023-01-17T13:53:28.837Z,52.96
2023-01-17T13:56:28.833Z,52.96
2023-01-17T13:59:02.121Z,52.30
2023-01-17T14:01:38.339Z,51.58
2023-01-17T14:04:10.755Z,51.83
2023-01-17T14:06:52.815Z,51.94
2023-01-17T14:09:41.593Z,51.99
2023-01-17T14:12:11.314Z,52.03
2023-01-17T14:14:40.972Z,51.72
2023-01-17T14:17:26.550Z,51.61
2023-01-17T14:19:58.113Z,51.75
2023-01-17T14:22:32.003Z,51.55
2023-01-17T14:25:15.034Z,51.66
2023-01-17T14:27:51.741Z,51.87
2023-01-17T14:30:33.842Z,52.09
2023-01-17T14:33:08.757Z,51.90
2023-01-17T14:35:55.817Z,51.75
2023-01-17T14:38:26.595Z,51.76
2023-01-17T14:41:07.443Z,51.63
2023-01-17T14:43:39.391Z,51.68
2023-01-17T14:46:15.424Z,51.14
2023-01-17T14:48:42.347Z,51.20
2023-01-17T14:51:18.209Z,51.32
2023-01-17T14:53:59.757Z,51.29
2023-01-17T14:56:29.287Z,50.82
2023-01-17T14:59:17.176Z,51.10
2023-01-17T15:02:06.249Z,51.35
2023-01-17T15:04:39.073Z,50.69
2023-01-17T15:07:06.340Z,51.10
2023-01-17T15:09:36.988Z,50.89
2023-01-17T15:12:04.416Z,51.05
2023-01-17T15:14:38.356Z,51.11
2023-01-17T15:17:20.246Z,51.23
2023-01-17T15:19:53.715Z,51.49
2023-01-17T15:22:20.997Z,51.67
2023-01-17T15:24:49.272Z,51.57
2023-01-17T15:27:17.138Z,51.77
2023-01-17T15:29:45.566Z,51.37
2023-01-17T15:32:22.562Z,51.49
2023-01-17T15:34:51.134Z,51.79
2023-01-17T15:37:36.658Z,51.88
2023-01-17T15:40:22.570Z,51.89
2023-01-17T15:42:58.256Z,52.04
2023-01-17T15:45:32.219Z,52.12
2023-01-17T15:48:40.765Z,52.19
2023-01-17T15:51:11.816Z,52.17
2023-01-17T15:53:42.452Z,52.18
2023-01-17T15:56:34.180Z,52.64
2023-01-17T15:59:45.485Z,52.54
2023-01-17T16:02:43.286Z,52.63
2023-01-17T16:05:27.447Z,52.03
2023-01-17T16:07:57.701Z,52.32
2023-01-17T16:10:28.748Z,52.49
2023-01-17T16:12:58.754Z,52.32
2023-01-17T16:15:27.369Z,52.54
2023-01-17T16:18:17.019Z,52.60
2023-01-17T16:21:00.907Z,52.58
2023-01-17T16:23:28.641Z,52.43
2023-01-17T16:25:55.533Z,52.75
2023-01-17T16:28:22.955Z,52.22
2023-01-17T16:30:49.929Z,52.22
2023-01-17T16:33:16.951Z,52.27
2023-01-17T16:35:43.836Z,52.10
2023-01-17T16:38:14.124Z,51.87
2023-01-17T16:40:46.166Z,52.02
2023-01-17T16:43:19.126Z,51.74
2023-01-17T16:45:49.013Z,52.10
2023-01-17T16:48:18.335Z,52.21
2023-01-17T16:50:50.622Z,52.08
2023-01-17T16:53:24.272Z,52.00
2023-01-17T16:55:55.320Z,51.90
2023-01-17T16:58:22.282Z,52.06
2023-01-17T17:00:49.219Z,51.58
2023-01-17T17:03:19.460Z,51.66
2023-01-17T17:05:56.772Z,51.82
2023-01-17T17:08:24.258Z,52.27
2023-01-17T17:10:51.336Z,51.73
2023-01-17T17:13:18.258Z,52.08
2023-01-17T17:15:45.252Z,52.35
2023-01-17T17:18:17.706Z,52.18
2023-01-17T17:20:45.108Z,52.31
2023-01-17T17:23:12.323Z,52.62
2023-01-17T17:25:39.534Z,52.94
2023-01-17T17:28:06.768Z,52.94
2023-01-17T17:30:34.516Z,52.95
2023-01-17T17:33:04.469Z,52.70
2023-01-17T17:35:34.705Z,52.56
2023-01-17T17:38:01.598Z,52.95
2023-01-17T17:40:28.480Z,52.99
2023-01-17T17:42:55.348Z,53.11
2023-01-17T17:45:22.416Z,53.54
2023-01-17T17:47:49.269Z,53.05
2023-01-17T17:50:16.380Z,53.23
2023-01-17T17:52:44.070Z,53.40
2023-01-17T17:55:13.051Z,53.78
2023-01-17T17:57:39.939Z,53.64
2023-01-17T18:00:07.907Z,53.59
2023-01-17T18:02:34.804Z,53.92
2023-01-17T18:05:02.427Z,53.40
2023-01-17T18:07:32.597Z,54.03
2023-01-17T18:09:59.600Z,53.90
2023-01-17T18:12:26.827Z,53.94
2023-01-17T18:14:53.709Z,54.17
2023-01-17T18:17:20.598Z,53.52
2023-01-17T18:19:47.500Z,53.87
2023-01-17T18:22:14.387Z,53.97
2023-01-17T18:24:41.264Z,53.61
2023-01-17T18:27:10.394Z,53.93
2023-01-17T18:29:37.358Z,53.57
2023-01-17T18:32:04.359Z,54.04
2023-01-17T18:34:31.248Z,53.76
2023-01-17T18:36:58.479Z,53.81
2023-01-17T18:39:28.794Z,53.74
2023-01-17T18:41:55.901Z,54.14
2023-01-17T18:44:22.959Z,54.29
2023-01-17T18:46:50.971Z,53.98
2023-01-17T18:49:21.050Z,54.39
2023-01-17T18:51:50.919Z,54.29
2023-01-17T18:54:19.903Z,54.02
2023-01-17T18:56:46.785Z,54.11
2023-01-17T18:59:18.079Z,54.44
2023-01-17T19:01:45.316Z,54.45
2023-01-17T19:04:14.661Z,54.41
2023-01-17T19:06:43.987Z,54.31
2023-01-17T19:09:13.312Z,54.73
2023-01-17T19:11:40.641Z,54.36
2023-01-17T19:14:07.643Z,54.71
2023-01-17T19:16:39.419Z,55.04
2023-01-17T19:19:10.461Z,55.20
2023-01-17T19:21:37.568Z,54.92
2023-01-17T19:24:04.776Z,55.26
2023-01-17T19:26:31.840Z,55.57
2023-01-17T19:29:00.008Z,55.33
2023-01-17T19:31:30.012Z,55.05
2023-01-17T19:33:58.724Z,55.61
2023-01-17T19:36:33.463Z,55.70
2023-01-17T19:39:05.627Z,55.57
2023-01-17T19:41:35.692Z,55.63
2023-01-17T19:44:08.990Z,55.39
2023-01-17T19:46:36.973Z,55.58
2023-01-17T19:49:06.424Z,55.68
2023-01-17T19:51:33.580Z,55.40
2023-01-17T19:54:01.715Z,55.18
2023-01-17T19:56:30.035Z,55.71
2023-01-17T19:59:00.893Z,55.27
2023-01-17T20:01:31.341Z,55.79
2023-01-17T20:03:58.875Z,55.75
2023-01-17T20:06:29.929Z,55.31
2023-01-17T20:08:57.337Z,55.83
2023-01-17T20:11:26.939Z,56.00
2023-01-17T20:13:57.069Z,55.53
2023-01-17T20:16:26.488Z,55.97
2023-01-17T20:18:53.449Z,56.36
2023-01-17T20:21:23.762Z,56.38
2023-01-17T20:23:52.482Z,56.26
2023-01-17T20:26:23.210Z,55.97
2023-01-17T20:28:51.884Z,56.23
2023-01-17T20:31:25.112Z,56.59
2023-01-17T20:33:55.050Z,56.26
2023-01-17T20:36:24.889Z,56.34
2023-01-17T20:38:53.170Z,56.48
2023-01-17T20:41:26.199Z,56.88
2023-01-17T20:43:56.865Z,56.37
2023-01-17T20:46:27.043Z,56.43
2023-01-17T20:48:57.847Z,56.18
2023-01-17T20:51:27.524Z,56.18
2023-01-17T20:53:57.677Z,56.30
2023-01-17T20:56:25.514Z,56.57
2023-01-17T20:58:54.433Z,56.72
2023-01-17T21:01:22.861Z,56.52
2023-01-17T21:03:53.120Z,56.68
2023-01-17T21:06:21.928Z,56.26
2023-01-17T21:08:49.523Z,56.25
2023-01-17T21:11:22.967Z,56.30
2023-01-17T21:13:51.218Z,56.30
2023-01-17T21:16:22.319Z,56.47
2023-01-17T21:18:51.602Z,56.39
2023-01-17T21:21:22.308Z,56.20
2023-01-17T21:23:51.522Z,56.83
2023-01-17T21:26:20.222Z,56.17
2023-01-17T21:28:48.721Z,56.51
2023-01-17T21:31:26.959Z,56.54
2023-01-17T21:34:00.330Z,56.83
2023-01-17T21:36:32.672Z,56.14
2023-01-17T21:39:04.643Z,56.06
2023-01-17T21:41:38.689Z,55.99
2023-01-17T21:44:12.228Z,56.33
2023-01-17T21:46:40.767Z,56.39
2023-01-17T21:49:12.312Z,55.97
2023-01-17T21:51:53.250Z,56.58
2023-01-17T21:54:45.180Z,55.81
2023-01-17T21:57:33.427Z,56.13
2023-01-17T22:00:00.412Z,56.30
2023-01-17T22:02:27.340Z,56.15
2023-01-17T22:04:56.132Z,55.98
2023-01-17T22:07:26.885Z,56.17
2023-01-17T22:09:54.563Z,56.55
2023-01-17T22:12:21.460Z,56.04
2023-01-17T22:14:48.355Z,56.43
2023-01-17T22:17:15.228Z,56.64
2023-01-17T22:19:42.119Z,56.68
2023-01-17T22:22:09.006Z,56.23
2023-01-17T22:24:35.895Z,56.58
2023-01-17T22:27:02.814Z,57.20
2023-01-17T22:29:29.725Z,56.74
2023-01-17T22:31:56.592Z,56.82
2023-01-17T22:34:23.493Z,57.08
2023-01-17T22:36:50.375Z,57.46
2023-01-17T22:39:17.254Z,57.33
2023-01-17T22:41:44.168Z,57.42
2023-01-17T22:44:11.250Z,57.54
2023-01-17T22:46:39.152Z,57.76
2023-01-17T22:49:08.256Z,57.74
2023-01-17T22:51:35.546Z,57.50
2023-01-17T22:54:02.561Z,57.32
2023-01-17T22:56:32.938Z,57.60
2023-01-17T22:59:01.457Z,57.74
2023-01-17T23:01:31.481Z,57.60
2023-01-17T23:04:01.632Z,57.58
2023-01-17T23:06:31.834Z,57.40
2023-01-17T23:09:02.525Z,57.38
2023-01-17T23:11:43.154Z,57.91
2023-01-17T23:14:18.468Z,57.35
2023-01-17T23:17:16.870Z,57.16
2023-01-17T23:19:47.700Z,57.32
2023-01-17T23:22:21.247Z,57.44
2023-01-17T23:24:49.533Z,57.62
2023-01-17T23:27:40.497Z,57.42
2023-01-17T23:30:14.010Z,57.57
2023-01-17T23:32:53.932Z,57.34
2023-01-17T23:35:27.507Z,57.37
2023-01-17T23:38:13.726Z,57.59
2023-01-17T23:40:40.874Z,58.04
2023-01-17T23:43:25.530Z,57.84
2023-01-17T23:45:54.671Z,57.70
2023-01-17T23:48:25.355Z,57.61
2023-01-17T23:50:57.319Z,57.83
2023-01-17T23:53:24.194Z,57.77
2023-01-17T23:55:54.425Z,57.40
2023-01-17T23:58:27.218Z,57.33
